Thunder radar more information blitzortung!


Radar de pluja more information rain snow radar


Visita la nostra xarxa de llocs de meteo:

Template documentation
and downloads

And another site



Extreme low temperature From: 23-02-2018 09:00 Until: 09:59 warning for: Extreme low temperature Level: Yellow info button

Pagina Historial Weather Underground text

Diari Resum February 2, 2018 Unitats:  Tant    Imperial   Mètric
« Previous Dia
SegĂźent Dia »
Diari Setmana Mensual Anual Personalitzada
  Maxima: Minima: Media:
Temperatura: TemperatureC °F /  -17.8 °C 3.3 °F /  -15.9 °C 6.1 °F /  -14.4 °C
Punt de rosada: DewpointC °F /  -17.8 °C -7.7 °F /  -22.1 °C -0.2 °F /  -17.9 °C
Humitat: Humidity % 43 % 65 %
Wind Speed: WindSpeedKMH mph /  0 km/h - 3.6 mph /  5.8 km/h
RĂ fegues de vent: WindSpeedGustKMH mph /  0 km/h - -
Vent:- - South
Pression baro: PressurehPa in /  0 hPa 1003.9 in /  33992.1 hPa -
Precipitacions: 1.0 in /  25.4 mm    
Historical Graphs
 
 
Dades de taula per February 2, 2018
Temps Temperatura Punt de rosada Pression baro Vent Wind Speed RĂ fegues de vent Humitat Rainfall Rate (Hourly)
TemperatureC °F /  -17.8 °C DewpointC °F /  -17.8 °C PressurehPa in /  0 hPa Calm     Humidity % HourlyPrecipMM in /  0 mm
00:04 5.0 °F /  -15 °C 1.7 °F /  -16.8 °C 1008.0 in /  34130.9 hPa ESE 3.9 mph /  6.3 km/h 3.9 mph /  6.3 km/h 79 % 0.0 in /  0 mm
00:09 5.0 °F /  -15 °C 1.7 °F /  -16.8 °C 1008.0 in /  34130.9 hPa East 5.6 mph /  9 km/h 5.6 mph /  9 km/h 79 % 0.0 in /  0 mm
00:14 4.9 °F /  -15.1 °C 1.7 °F /  -16.8 °C 1008.0 in /  34130.9 hPa ENE 5.6 mph /  9 km/h 5.6 mph /  9 km/h 80 % 0.0 in /  0 mm
00:19 4.8 °F /  -15.1 °C 1.7 °F /  -16.8 °C 1008.0 in /  34130.9 hPa ESE 7.4 mph /  11.9 km/h 7.4 mph /  11.9 km/h 80 % 0.0 in /  0 mm
00:24 4.8 °F /  -15.1 °C 1.7 °F /  -16.8 °C 1008.0 in /  34130.9 hPa ENE 3.7 mph /  6 km/h 3.7 mph /  6 km/h 80 % 0.0 in /  0 mm
00:29 4.7 °F /  -15.2 °C 1.6 °F /  -16.9 °C 1008.0 in /  34130.9 hPa ENE 7.4 mph /  11.9 km/h 7.4 mph /  11.9 km/h 80 % 0.0 in /  0 mm
00:34 4.7 °F /  -15.2 °C 1.7 °F /  -16.8 °C 1008.0 in /  34130.9 hPa East 3.9 mph /  6.3 km/h 3.9 mph /  6.3 km/h 81 % 0.0 in /  0 mm
00:39 4.7 °F /  -15.2 °C 1.7 °F /  -16.8 °C 1008.0 in /  34130.9 hPa ESE 7.4 mph /  11.9 km/h 7.4 mph /  11.9 km/h 81 % 0.0 in /  0 mm
00:44 4.6 °F /  -15.2 °C 1.8 °F /  -16.8 °C 1008.0 in /  34130.9 hPa East 5.6 mph /  9 km/h 5.6 mph /  9 km/h 82 % 0.0 in /  0 mm
00:49 4.6 °F /  -15.2 °C 1.8 °F /  -16.8 °C 1008.0 in /  34130.9 hPa East 7.4 mph /  11.9 km/h 7.4 mph /  11.9 km/h 82 % 0.0 in /  0 mm
00:54 4.6 °F /  -15.2 °C 1.8 °F /  -16.8 °C 1008.0 in /  34130.9 hPa ESE 7.4 mph /  11.9 km/h 7.4 mph /  11.9 km/h 82 % 0.0 in /  0 mm
00:59 4.5 °F /  -15.3 °C 1.9 °F /  -16.7 °C 1008.0 in /  34130.9 hPa ENE 5.6 mph /  9 km/h 5.6 mph /  9 km/h 83 % 1.3 in /  33.02 mm
01:04 4.5 °F /  -15.3 °C 1.9 °F /  -16.7 °C 1008.0 in /  34130.9 hPa ENE 7.4 mph /  11.9 km/h 7.4 mph /  11.9 km/h 83 % 0.0 in /  0 mm
01:09 4.3 °F /  -15.4 °C 1.7 °F /  -16.8 °C 1008.0 in /  34130.9 hPa ESE 9.3 mph /  15 km/h 9.3 mph /  15 km/h 83 % 1.3 in /  33.02 mm
01:14 4.3 °F /  -15.4 °C 1.7 °F /  -16.8 °C 1007.0 in /  34097 hPa SSE 7.4 mph /  11.9 km/h 7.4 mph /  11.9 km/h 83 % 1.3 in /  33.02 mm
01:19 4.3 °F /  -15.4 °C 1.7 °F /  -16.8 °C 1007.0 in /  34097 hPa ESE 3.7 mph /  6 km/h 3.9 mph /  6.3 km/h 83 % 1.3 in /  33.02 mm
01:24 4.3 °F /  -15.4 °C 1.7 °F /  -16.8 °C 1007.0 in /  34097 hPa East 5.6 mph /  9 km/h 5.6 mph /  9 km/h 83 % 1.3 in /  33.02 mm
01:29 4.2 °F /  -15.4 °C 1.6 °F /  -16.9 °C 1007.0 in /  34097 hPa ESE 3.7 mph /  6 km/h 3.7 mph /  6 km/h 83 % 1.3 in /  33.02 mm
01:34 4.1 °F /  -15.5 °C 1.4 °F /  -17 °C 1007.0 in /  34097 hPa Calm     83 % 1.3 in /  33.02 mm
01:39 4.2 °F /  -15.4 °C 1.6 °F /  -16.9 °C 1007.0 in /  34097 hPa Calm     83 % 1.3 in /  33.02 mm
01:44 4.2 °F /  -15.4 °C 1.6 °F /  -16.9 °C 1007.0 in /  34097 hPa Calm     83 % 1.3 in /  33.02 mm
01:49 4.2 °F /  -15.4 °C 1.6 °F /  -16.9 °C 1007.0 in /  34097 hPa SSW 1.9 mph /  3.1 km/h   83 % 1.3 in /  33.02 mm
01:54 4.2 °F /  -15.4 °C 1.6 °F /  -16.9 °C 1007.0 in /  34097 hPa SSW 1.9 mph /  3.1 km/h 1.9 mph /  3.1 km/h 83 % 1.3 in /  33.02 mm
01:59 4.1 °F /  -15.5 °C 1.4 °F /  -17 °C 1007.0 in /  34097 hPa Calm     83 % 1.3 in /  33.02 mm
02:04 4.1 °F /  -15.5 °C 1.3 °F /  -17.1 °C 1007.0 in /  34097 hPa WSW 3.7 mph /  6 km/h 3.7 mph /  6 km/h 82 % 1.3 in /  33.02 mm
02:09 4.1 °F /  -15.5 °C 1.3 °F /  -17.1 °C 1007.0 in /  34097 hPa WSW 2.3 mph /  3.7 km/h 2.3 mph /  3.7 km/h 82 % 0.0 in /  0 mm
03:25 3.3 °F /  -15.9 °C 0.8 °F /  -17.3 °C 1007.0 in /  34097 hPa WSW 1.6 mph /  2.6 km/h 3.2 mph /  5.1 km/h 84 % 0.0 in /  0 mm
09:26 3.3 °F /  -15.9 °C 0.8 °F /  -17.3 °C 1007.0 in /  34097 hPa WSW 3.7 mph /  6 km/h 3.7 mph /  6 km/h 84 % 0.0 in /  0 mm
09:32 3.5 °F /  -15.8 °C 1.1 °F /  -17.2 °C 1006.0 in /  34063.2 hPa WSW 3.7 mph /  6 km/h 3.7 mph /  6 km/h 84 % 0.0 in /  0 mm
09:37 3.5 °F /  -15.8 °C 1.1 °F /  -17.2 °C 1006.0 in /  34063.2 hPa WSW 1.9 mph /  3.1 km/h 2.3 mph /  3.7 km/h 84 % 0.0 in /  0 mm
09:42 3.6 °F /  -15.8 °C 1.2 °F /  -17.1 °C 1006.0 in /  34063.2 hPa WSW 1.9 mph /  3.1 km/h 1.9 mph /  3.1 km/h 84 % 0.0 in /  0 mm
09:47 3.6 °F /  -15.8 °C 1.2 °F /  -17.1 °C 1007.0 in /  34097 hPa SW 3.7 mph /  6 km/h 3.7 mph /  6 km/h 84 % 0.0 in /  0 mm
09:52 3.7 °F /  -15.7 °C 1.2 °F /  -17.1 °C 1007.0 in /  34097 hPa SW 1.9 mph /  3.1 km/h   84 % 0.0 in /  0 mm
09:57 3.8 °F /  -15.7 °C 1.3 °F /  -17.1 °C 1007.0 in /  34097 hPa Calm     84 % 0.0 in /  0 mm
10:02 3.8 °F /  -15.7 °C 1.3 °F /  -17.1 °C 1006.0 in /  34063.2 hPa Calm     84 % 0.0 in /  0 mm
10:07 3.9 °F /  -15.6 °C 1.4 °F /  -17 °C 1006.0 in /  34063.2 hPa Calm     84 % 0.0 in /  0 mm
10:12 3.9 °F /  -15.6 °C 1.3 °F /  -17.1 °C 1006.0 in /  34063.2 hPa Calm     83 % 0.0 in /  0 mm
10:17 4.0 °F /  -15.6 °C 1.4 °F /  -17 °C 1007.0 in /  34097 hPa Calm     83 % 0.0 in /  0 mm
10:22 4.2 °F /  -15.4 °C 1.6 °F /  -16.9 °C 1007.0 in /  34097 hPa SW 1.9 mph /  3.1 km/h 1.9 mph /  3.1 km/h 83 % 0.0 in /  0 mm
10:27 4.3 °F /  -15.4 °C 1.7 °F /  -16.8 °C 1007.0 in /  34097 hPa Calm     83 % 0.0 in /  0 mm
10:32 4.5 °F /  -15.3 °C 1.9 °F /  -16.7 °C 1007.0 in /  34097 hPa Calm     83 % 0.0 in /  0 mm
10:37 4.6 °F /  -15.2 °C 1.9 °F /  -16.7 °C 1007.0 in /  34097 hPa Calm     83 % 0.0 in /  0 mm
10:42 4.7 °F /  -15.2 °C 2.1 °F /  -16.6 °C 1007.0 in /  34097 hPa Calm     83 % 0.0 in /  0 mm
10:47 4.7 °F /  -15.2 °C 2.1 °F /  -16.6 °C 1007.0 in /  34097 hPa Calm     83 % 0.0 in /  0 mm
10:52 4.7 °F /  -15.2 °C 1.9 °F /  -16.7 °C 1007.0 in /  34097 hPa Calm     82 % 0.0 in /  0 mm
10:57 4.8 °F /  -15.1 °C 2.0 °F /  -16.7 °C 1007.0 in /  34097 hPa NNE 4.2 mph /  6.8 km/h 4.2 mph /  6.8 km/h 82 % 0.0 in /  0 mm
11:02 4.6 °F /  -15.2 °C 1.8 °F /  -16.8 °C 1007.0 in /  34097 hPa NE 3.7 mph /  6 km/h   82 % 0.0 in /  0 mm
11:07 4.8 °F /  -15.1 °C 2.0 °F /  -16.7 °C 1007.0 in /  34097 hPa NE 3.2 mph /  5.1 km/h 3.2 mph /  5.1 km/h 82 % 0.0 in /  0 mm
11:12 4.8 °F /  -15.1 °C 1.8 °F /  -16.8 °C 1007.0 in /  34097 hPa NNE 4.2 mph /  6.8 km/h 4.2 mph /  6.8 km/h 81 % 0.0 in /  0 mm
11:17 4.8 °F /  -15.1 °C 1.8 °F /  -16.8 °C 1006.0 in /  34063.2 hPa NE 1.9 mph /  3.1 km/h   81 % 0.0 in /  0 mm
11:22 5.0 °F /  -15 °C 2.0 °F /  -16.7 °C 1006.0 in /  34063.2 hPa Calm     81 % 0.0 in /  0 mm
11:27 5.2 °F /  -14.9 °C 2.2 °F /  -16.6 °C 1006.0 in /  34063.2 hPa ENE 1.4 mph /  2.3 km/h   81 % 0.0 in /  0 mm
11:32 5.1 °F /  -14.9 °C 1.9 °F /  -16.7 °C 1007.0 in /  34097 hPa NE 1.9 mph /  3.1 km/h   80 % 0.0 in /  0 mm
11:37 5.2 °F /  -14.9 °C 1.8 °F /  -16.8 °C 1007.0 in /  34097 hPa ENE 1.9 mph /  3.1 km/h 1.9 mph /  3.1 km/h 79 % 0.0 in /  0 mm
11:42 5.5 °F /  -14.7 °C 2.2 °F /  -16.6 °C 1007.0 in /  34097 hPa Calm   1.9 mph /  3.1 km/h 79 % 0.0 in /  0 mm
11:47 5.7 °F /  -14.6 °C 2.3 °F /  -16.5 °C 1007.0 in /  34097 hPa North 1.9 mph /  3.1 km/h   79 % 0.0 in /  0 mm
11:52 5.9 °F /  -14.5 °C 2.6 °F /  -16.3 °C 1007.0 in /  34097 hPa WNW 3.7 mph /  6 km/h 3.7 mph /  6 km/h 79 % 0.0 in /  0 mm
11:57 6.1 °F /  -14.4 °C 2.7 °F /  -16.3 °C 1007.0 in /  34097 hPa NNE 1.9 mph /  3.1 km/h   79 % 0.0 in /  0 mm
12:02 6.1 °F /  -14.4 °C 2.6 °F /  -16.3 °C 1007.0 in /  34097 hPa ENE 5.3 mph /  8.5 km/h 5.8 mph /  9.3 km/h 78 % 0.0 in /  0 mm
12:07 6.3 °F /  -14.3 °C 2.7 °F /  -16.3 °C 1007.0 in /  34097 hPa NNE 4.7 mph /  7.6 km/h 4.7 mph /  7.6 km/h 78 % 0.0 in /  0 mm
12:12 6.2 °F /  -14.3 °C 2.3 °F /  -16.5 °C 1007.0 in /  34097 hPa NE 2.3 mph /  3.7 km/h 2.3 mph /  3.7 km/h 76 % 0.0 in /  0 mm
12:17 6.5 °F /  -14.2 °C 2.8 °F /  -16.2 °C 1006.0 in /  34063.2 hPa NNE 5.6 mph /  9 km/h 5.6 mph /  9 km/h 77 % 0.0 in /  0 mm
12:22 6.8 °F /  -14 °C 3.1 °F /  -16.1 °C 1006.0 in /  34063.2 hPa NNE 2.6 mph /  4.2 km/h   77 % 0.0 in /  0 mm
12:27 6.8 °F /  -14 °C 2.9 °F /  -16.2 °C 1006.0 in /  34063.2 hPa NNE 4.7 mph /  7.6 km/h 4.7 mph /  7.6 km/h 76 % 0.0 in /  0 mm
12:32 6.5 °F /  -14.2 °C 2.6 °F /  -16.3 °C 1006.0 in /  34063.2 hPa NE 5.6 mph /  9 km/h 5.6 mph /  9 km/h 76 % 0.0 in /  0 mm
12:37 6.7 °F /  -14.1 °C 2.8 °F /  -16.2 °C 1006.0 in /  34063.2 hPa East 3.7 mph /  6 km/h 3.9 mph /  6.3 km/h 76 % 0.0 in /  0 mm
12:42 6.6 °F /  -14.1 °C 2.5 °F /  -16.4 °C 1006.0 in /  34063.2 hPa East 3.7 mph /  6 km/h 3.9 mph /  6.3 km/h 75 % 0.0 in /  0 mm
12:47 6.7 °F /  -14.1 °C 2.6 °F /  -16.3 °C 1005.0 in /  34029.3 hPa Calm   1.4 mph /  2.3 km/h 75 % 0.0 in /  0 mm
12:52 6.7 °F /  -14.1 °C 2.6 °F /  -16.3 °C 1005.0 in /  34029.3 hPa NNE 3.7 mph /  6 km/h 3.7 mph /  6 km/h 75 % 0.0 in /  0 mm
12:57 6.9 °F /  -13.9 °C 2.8 °F /  -16.2 °C 1005.0 in /  34029.3 hPa WNW 1.9 mph /  3.1 km/h 2.3 mph /  3.7 km/h 75 % 0.0 in /  0 mm
13:02 6.9 °F /  -13.9 °C 2.8 °F /  -16.2 °C 1006.0 in /  34063.2 hPa NE 3.2 mph /  5.1 km/h   75 % 0.0 in /  0 mm
13:07 7.0 °F /  -13.9 °C 2.7 °F /  -16.3 °C 1006.0 in /  34063.2 hPa NNE 4.2 mph /  6.8 km/h 4.2 mph /  6.8 km/h 74 % 0.0 in /  0 mm
13:12 6.9 °F /  -13.9 °C 2.6 °F /  -16.3 °C 1006.0 in /  34063.2 hPa ENE 3.7 mph /  6 km/h 3.7 mph /  6 km/h 74 % 0.0 in /  0 mm
13:17 6.8 °F /  -14 °C 2.3 °F /  -16.5 °C 1006.0 in /  34063.2 hPa ENE 3.7 mph /  6 km/h 3.7 mph /  6 km/h 73 % 0.0 in /  0 mm
13:22 7.0 °F /  -13.9 °C 2.7 °F /  -16.3 °C 1006.0 in /  34063.2 hPa NNE 4.7 mph /  7.6 km/h 4.7 mph /  7.6 km/h 74 % 0.0 in /  0 mm
13:27 6.8 °F /  -14 °C 2.3 °F /  -16.5 °C 1006.0 in /  34063.2 hPa ENE 5.6 mph /  9 km/h 5.6 mph /  9 km/h 73 % 0.0 in /  0 mm
13:32 7.0 °F /  -13.9 °C 2.5 °F /  -16.4 °C 1006.0 in /  34063.2 hPa NNE 1.9 mph /  3.1 km/h 1.9 mph /  3.1 km/h 73 % 0.0 in /  0 mm
13:37 7.1 °F /  -13.8 °C 2.6 °F /  -16.3 °C 1006.0 in /  34063.2 hPa Calm   1.4 mph /  2.3 km/h 73 % 0.0 in /  0 mm
13:42 7.1 °F /  -13.8 °C 2.4 °F /  -16.4 °C 1006.0 in /  34063.2 hPa East 1.9 mph /  3.1 km/h 1.9 mph /  3.1 km/h 72 % 0.0 in /  0 mm
13:47 7.3 °F /  -13.7 °C 2.4 °F /  -16.4 °C 1006.0 in /  34063.2 hPa ENE 1.9 mph /  3.1 km/h 2.6 mph /  4.2 km/h 71 % 0.0 in /  0 mm
13:52 7.4 °F /  -13.7 °C 2.5 °F /  -16.4 °C 1006.0 in /  34063.2 hPa ENE 3.7 mph /  6 km/h 3.7 mph /  6 km/h 71 % 0.0 in /  0 mm
13:57 7.6 °F /  -13.6 °C 2.9 °F /  -16.2 °C 1006.0 in /  34063.2 hPa NNE 1.9 mph /  3.1 km/h 2.3 mph /  3.7 km/h 72 % 0.0 in /  0 mm
14:02 7.8 °F /  -13.4 °C 3.1 °F /  -16.1 °C 1003.9 in /  33992.1 hPa WSW 1.9 mph /  3.1 km/h 2.3 mph /  3.7 km/h 72 % 0.0 in /  0 mm
14:07 8.3 °F /  -13.2 °C 3.6 °F /  -15.8 °C 1003.9 in /  33992.1 hPa West 1.9 mph /  3.1 km/h 1.9 mph /  3.1 km/h 72 % 0.0 in /  0 mm
14:12 8.6 °F /  -13 °C 3.8 °F /  -15.7 °C 1003.9 in /  33992.1 hPa Calm   1.4 mph /  2.3 km/h 72 % 0.0 in /  0 mm
14:17 8.6 °F /  -13 °C 3.4 °F /  -15.9 °C 1003.9 in /  33992.1 hPa WNW 1.9 mph /  3.1 km/h   70 % 0.0 in /  0 mm
14:22 8.4 °F /  -13.1 °C 3.2 °F /  -16 °C 1003.9 in /  33992.1 hPa NE 4.2 mph /  6.8 km/h 4.2 mph /  6.8 km/h 70 % 0.0 in /  0 mm
14:27 8.3 °F /  -13.2 °C 2.9 °F /  -16.2 °C 1003.9 in /  33992.1 hPa NNE 3.7 mph /  6 km/h 3.7 mph /  6 km/h 69 % 0.0 in /  0 mm
14:32 8.3 °F /  -13.2 °C 2.9 °F /  -16.2 °C 1003.9 in /  33992.1 hPa ENE 5.6 mph /  9 km/h 5.6 mph /  9 km/h 69 % 0.0 in /  0 mm
14:37 8.3 °F /  -13.2 °C 2.9 °F /  -16.2 °C 1003.9 in /  33992.1 hPa NNE 5.6 mph /  9 km/h 5.6 mph /  9 km/h 69 % 0.0 in /  0 mm
14:42 8.6 °F /  -13 °C 3.2 °F /  -16 °C 1003.9 in /  33992.1 hPa NNE 3.7 mph /  6 km/h 3.7 mph /  6 km/h 69 % 0.0 in /  0 mm
14:47 8.4 °F /  -13.1 °C 2.8 °F /  -16.2 °C 1003.9 in /  33992.1 hPa NNE 7.4 mph /  11.9 km/h 7.4 mph /  11.9 km/h 68 % 0.0 in /  0 mm
14:52 8.5 °F /  -13.1 °C 2.9 °F /  -16.2 °C 1003.9 in /  33992.1 hPa ENE 5.6 mph /  9 km/h 5.6 mph /  9 km/h 68 % 0.0 in /  0 mm
14:57 8.5 °F /  -13.1 °C 2.9 °F /  -16.2 °C 1003.9 in /  33992.1 hPa NNE 5.6 mph /  9 km/h 5.6 mph /  9 km/h 68 % 0.0 in /  0 mm
15:02 8.6 °F /  -13 °C 3.0 °F /  -16.1 °C 1005.0 in /  34029.3 hPa NNE 3.9 mph /  6.3 km/h 3.9 mph /  6.3 km/h 68 % 0.0 in /  0 mm
15:07 8.7 °F /  -12.9 °C 2.7 °F /  -16.3 °C 1005.0 in /  34029.3 hPa East 3.7 mph /  6 km/h 3.7 mph /  6 km/h 66 % 0.0 in /  0 mm
15:12 9.1 °F /  -12.7 °C 3.5 °F /  -15.8 °C 1005.0 in /  34029.3 hPa SW 3.7 mph /  6 km/h 3.9 mph /  6.3 km/h 68 % 0.0 in /  0 mm
15:17 9.3 °F /  -12.6 °C 3.5 °F /  -15.8 °C 1005.0 in /  34029.3 hPa West 6.4 mph /  10.3 km/h 6.4 mph /  10.3 km/h 67 % 0.0 in /  0 mm
15:22 9.6 °F /  -12.4 °C 3.6 °F /  -15.8 °C 1005.0 in /  34029.3 hPa WSW 5.6 mph /  9 km/h 5.8 mph /  9.3 km/h 66 % 0.0 in /  0 mm
15:27 9.8 °F /  -12.3 °C 3.5 °F /  -15.8 °C 1005.0 in /  34029.3 hPa West 13.0 mph /  20.9 km/h 13.0 mph /  20.9 km/h 65 % 0.0 in /  0 mm
15:32 9.8 °F /  -12.3 °C 3.5 °F /  -15.8 °C 1005.0 in /  34029.3 hPa WSW 9.7 mph /  15.6 km/h 9.7 mph /  15.6 km/h 65 % 0.0 in /  0 mm
15:37 9.5 °F /  -12.5 °C 2.8 °F /  -16.2 °C 1005.0 in /  34029.3 hPa West 5.6 mph /  9 km/h 5.6 mph /  9 km/h 63 % 0.0 in /  0 mm
15:42 9.6 °F /  -12.4 °C 2.9 °F /  -16.2 °C 1005.0 in /  34029.3 hPa WSW 7.4 mph /  11.9 km/h 7.4 mph /  11.9 km/h 63 % 0.0 in /  0 mm
15:47 9.4 °F /  -12.6 °C 2.3 °F /  -16.5 °C 1006.0 in /  34063.2 hPa WNW 7.4 mph /  11.9 km/h 7.4 mph /  11.9 km/h 61 % 0.0 in /  0 mm
15:52 9.5 °F /  -12.5 °C 2.3 °F /  -16.5 °C 1006.0 in /  34063.2 hPa West 4.2 mph /  6.8 km/h 6.9 mph /  11.1 km/h 61 % 0.0 in /  0 mm
15:57 9.5 °F /  -12.5 °C 2.3 °F /  -16.5 °C 1006.0 in /  34063.2 hPa NW 1.9 mph /  3.1 km/h 2.3 mph /  3.7 km/h 61 % 0.0 in /  0 mm
16:02 9.6 °F /  -12.4 °C 2.4 °F /  -16.4 °C 1006.0 in /  34063.2 hPa SW 5.6 mph /  9 km/h 5.6 mph /  9 km/h 61 % 0.0 in /  0 mm
16:07 9.7 °F /  -12.4 °C 2.6 °F /  -16.3 °C 1006.0 in /  34063.2 hPa West 5.6 mph /  9 km/h 5.6 mph /  9 km/h 61 % 0.0 in /  0 mm
16:12 9.9 °F /  -12.3 °C 2.7 °F /  -16.3 °C 1006.0 in /  34063.2 hPa SW 5.6 mph /  9 km/h 5.6 mph /  9 km/h 61 % 0.0 in /  0 mm
16:17 9.7 °F /  -12.4 °C 2.6 °F /  -16.3 °C 1006.0 in /  34063.2 hPa WNW 7.4 mph /  11.9 km/h 7.4 mph /  11.9 km/h 61 % 0.0 in /  0 mm
16:22 9.5 °F /  -12.5 °C 2.1 °F /  -16.6 °C 1006.0 in /  34063.2 hPa WSW 4.7 mph /  7.6 km/h 4.7 mph /  7.6 km/h 60 % 0.0 in /  0 mm
16:27 9.5 °F /  -12.5 °C 2.1 °F /  -16.6 °C 1006.0 in /  34063.2 hPa NW 3.7 mph /  6 km/h 3.7 mph /  6 km/h 60 % 0.0 in /  0 mm
16:32 9.6 °F /  -12.4 °C 1.9 °F /  -16.7 °C 1006.0 in /  34063.2 hPa West 1.9 mph /  3.1 km/h 3.9 mph /  6.3 km/h 59 % 0.0 in /  0 mm
16:37 9.6 °F /  -12.4 °C 2.2 °F /  -16.6 °C 1006.0 in /  34063.2 hPa WNW 5.8 mph /  9.3 km/h 5.8 mph /  9.3 km/h 60 % 0.0 in /  0 mm
16:42 9.7 °F /  -12.4 °C 1.8 °F /  -16.8 °C 1006.0 in /  34063.2 hPa NW 3.7 mph /  6 km/h 3.7 mph /  6 km/h 58 % 0.0 in /  0 mm
16:47 9.9 °F /  -12.3 °C 2.0 °F /  -16.7 °C 1005.0 in /  34029.3 hPa WNW 7.4 mph /  11.9 km/h 7.4 mph /  11.9 km/h 58 % 0.0 in /  0 mm
16:52 9.8 °F /  -12.3 °C 1.7 °F /  -16.8 °C 1005.0 in /  34029.3 hPa NNW 3.7 mph /  6 km/h   57 % 0.0 in /  0 mm
16:57 9.8 °F /  -12.3 °C 1.7 °F /  -16.8 °C 1005.0 in /  34029.3 hPa East 1.9 mph /  3.1 km/h   57 % 0.0 in /  0 mm
17:02 9.9 °F /  -12.3 °C 1.8 °F /  -16.8 °C 1005.0 in /  34029.3 hPa WSW 3.7 mph /  6 km/h 3.7 mph /  6 km/h 57 % 0.0 in /  0 mm
17:07 9.9 °F /  -12.3 °C 1.8 °F /  -16.8 °C 1005.0 in /  34029.3 hPa NNE 2.6 mph /  4.2 km/h   57 % 0.0 in /  0 mm
17:12 9.7 °F /  -12.4 °C 1.6 °F /  -16.9 °C 1005.0 in /  34029.3 hPa NNW 2.6 mph /  4.2 km/h 2.6 mph /  4.2 km/h 57 % 0.0 in /  0 mm
17:13 9.7 °F /  -12.4 °C 1.6 °F /  -16.9 °C 1005.0 in /  34029.3 hPa NNW 2.6 mph /  4.2 km/h 2.6 mph /  4.2 km/h 57 % 0.0 in /  0 mm
17:18 9.6 °F /  -12.4 °C 1.2 °F /  -17.1 °C 1006.0 in /  34063.2 hPa NW 1.9 mph /  3.1 km/h   56 % 0.0 in /  0 mm
17:23 9.5 °F /  -12.5 °C 1.2 °F /  -17.1 °C 1006.0 in /  34063.2 hPa North 2.3 mph /  3.7 km/h 2.3 mph /  3.7 km/h 56 % 0.0 in /  0 mm
17:28 9.2 °F /  -12.7 °C 0.9 °F /  -17.3 °C 1006.0 in /  34063.2 hPa NE 3.7 mph /  6 km/h 3.7 mph /  6 km/h 56 % 0.0 in /  0 mm
17:33 9.2 °F /  -12.7 °C 0.9 °F /  -17.3 °C 1006.0 in /  34063.2 hPa Calm     56 % 0.0 in /  0 mm
17:38 9.1 °F /  -12.7 °C 0.5 °F /  -17.5 °C 1006.0 in /  34063.2 hPa NE 1.9 mph /  3.1 km/h 1.9 mph /  3.1 km/h 55 % 0.0 in /  0 mm
17:43 9.0 °F /  -12.8 °C 0.4 °F /  -17.6 °C 1006.0 in /  34063.2 hPa NE 1.9 mph /  3.1 km/h   55 % 0.0 in /  0 mm
17:48 8.8 °F /  -12.9 °C 0.2 °F /  -17.7 °C 1005.0 in /  34029.3 hPa Calm     55 % 0.0 in /  0 mm
17:53 8.7 °F /  -12.9 °C 0.2 °F /  -17.7 °C 1005.0 in /  34029.3 hPa Calm     55 % 0.0 in /  0 mm
17:58 8.7 °F /  -12.9 °C 0.2 °F /  -17.7 °C 1005.0 in /  34029.3 hPa Calm     55 % 0.0 in /  0 mm
18:03 8.6 °F /  -13 °C 0.3 °F /  -17.6 °C 1006.0 in /  34063.2 hPa Calm     56 % 0.0 in /  0 mm
18:08 8.4 °F /  -13.1 °C 0.1 °F /  -17.7 °C 1006.0 in /  34063.2 hPa Calm     56 % 0.0 in /  0 mm
18:13 8.2 °F /  -13.2 °C 0.2 °F /  -17.7 °C 1006.0 in /  34063.2 hPa Calm     57 % 0.0 in /  0 mm
18:18 8.0 °F /  -13.3 °C -0.3 °F /  -17.9 °C 1006.0 in /  34063.2 hPa Calm     56 % 0.0 in /  0 mm
18:23 7.9 °F /  -13.4 °C -0.3 °F /  -17.9 °C 1006.0 in /  34063.2 hPa Calm     56 % 0.0 in /  0 mm
18:28 7.7 °F /  -13.5 °C -0.3 °F /  -17.9 °C 1006.0 in /  34063.2 hPa WNW 1.9 mph /  3.1 km/h 1.9 mph /  3.1 km/h 57 % 0.0 in /  0 mm
18:33 7.5 °F /  -13.6 °C -0.5 °F /  -18.1 °C 1006.0 in /  34063.2 hPa Calm     57 % 0.0 in /  0 mm
18:38 7.3 °F /  -13.7 °C -0.4 °F /  -18 °C 1006.0 in /  34063.2 hPa West 3.7 mph /  6 km/h 3.7 mph /  6 km/h 58 % 0.0 in /  0 mm
18:43 7.1 °F /  -13.8 °C -0.4 °F /  -18 °C 1006.0 in /  34063.2 hPa WSW 3.9 mph /  6.3 km/h 4.2 mph /  6.8 km/h 59 % 0.0 in /  0 mm
18:48 7.1 °F /  -13.8 °C -0.6 °F /  -18.1 °C 1006.0 in /  34063.2 hPa West 1.9 mph /  3.1 km/h 1.9 mph /  3.1 km/h 58 % 0.0 in /  0 mm
18:53 7.0 °F /  -13.9 °C -0.7 °F /  -18.2 °C 1006.0 in /  34063.2 hPa NE 3.9 mph /  6.3 km/h 3.9 mph /  6.3 km/h 58 % 0.0 in /  0 mm
18:58 6.7 °F /  -14.1 °C -1.0 °F /  -18.3 °C 1006.0 in /  34063.2 hPa West 3.9 mph /  6.3 km/h   58 % 0.0 in /  0 mm
19:03 6.6 °F /  -14.1 °C -1.1 °F /  -18.4 °C 1007.0 in /  34097 hPa WNW 1.9 mph /  3.1 km/h 1.9 mph /  3.1 km/h 58 % 0.0 in /  0 mm
19:08 6.6 °F /  -14.1 °C -1.3 °F /  -18.5 °C 1007.0 in /  34097 hPa WSW 4.2 mph /  6.8 km/h 4.2 mph /  6.8 km/h 57 % 0.0 in /  0 mm
19:13 6.7 °F /  -14.1 °C -1.4 °F /  -18.6 °C 1007.0 in /  34097 hPa WSW 3.7 mph /  6 km/h 4.2 mph /  6.8 km/h 56 % 0.0 in /  0 mm
19:18 6.7 °F /  -14.1 °C -1.4 °F /  -18.6 °C 1007.0 in /  34097 hPa WSW 5.6 mph /  9 km/h 5.6 mph /  9 km/h 56 % 0.0 in /  0 mm
19:23 6.6 °F /  -14.1 °C -2.1 °F /  -18.9 °C 1007.0 in /  34097 hPa West 3.7 mph /  6 km/h 3.7 mph /  6 km/h 54 % 0.0 in /  0 mm
19:28 6.5 °F /  -14.2 °C -2.2 °F /  -19 °C 1007.0 in /  34097 hPa East 5.6 mph /  9 km/h 5.6 mph /  9 km/h 54 % 0.0 in /  0 mm
19:33 6.7 °F /  -14.1 °C -2.5 °F /  -19.2 °C 1007.0 in /  34097 hPa NE 3.7 mph /  6 km/h 3.7 mph /  6 km/h 52 % 0.0 in /  0 mm
19:38 6.9 °F /  -13.9 °C -2.3 °F /  -19.1 °C 1007.0 in /  34097 hPa SW 5.6 mph /  9 km/h 5.6 mph /  9 km/h 52 % 0.0 in /  0 mm
19:43 6.4 °F /  -14.2 °C -2.8 °F /  -19.3 °C 1007.0 in /  34097 hPa WSW 4.2 mph /  6.8 km/h 4.2 mph /  6.8 km/h 52 % 0.0 in /  0 mm
19:48 6.2 °F /  -14.3 °C -2.9 °F /  -19.4 °C 1007.0 in /  34097 hPa SW 1.9 mph /  3.1 km/h 2.3 mph /  3.7 km/h 52 % 0.0 in /  0 mm
19:53 6.0 °F /  -14.4 °C -3.4 °F /  -19.7 °C 1007.0 in /  34097 hPa WSW 1.9 mph /  3.1 km/h   51 % 0.0 in /  0 mm
19:58 6.0 °F /  -14.4 °C -3.4 °F /  -19.7 °C 1007.0 in /  34097 hPa ENE 3.7 mph /  6 km/h 3.7 mph /  6 km/h 51 % 0.0 in /  0 mm
20:03 6.0 °F /  -14.4 °C -3.4 °F /  -19.7 °C 1007.0 in /  34097 hPa WSW 2.3 mph /  3.7 km/h 2.3 mph /  3.7 km/h 51 % 0.0 in /  0 mm
20:08 5.7 °F /  -14.6 °C -3.7 °F /  -19.8 °C 1007.0 in /  34097 hPa WSW 2.3 mph /  3.7 km/h 2.3 mph /  3.7 km/h 51 % 0.0 in /  0 mm
20:13 5.7 °F /  -14.6 °C -3.7 °F /  -19.8 °C 1007.0 in /  34097 hPa WSW 3.7 mph /  6 km/h 3.7 mph /  6 km/h 51 % 0.0 in /  0 mm
20:18 5.7 °F /  -14.6 °C -3.7 °F /  -19.8 °C 1008.0 in /  34130.9 hPa NW 3.7 mph /  6 km/h 3.7 mph /  6 km/h 51 % 0.0 in /  0 mm
20:23 5.7 °F /  -14.6 °C -3.7 °F /  -19.8 °C 1008.0 in /  34130.9 hPa WSW 5.8 mph /  9.3 km/h 5.8 mph /  9.3 km/h 51 % 0.0 in /  0 mm
20:28 5.4 °F /  -14.8 °C -3.9 °F /  -19.9 °C 1008.0 in /  34130.9 hPa SW 3.7 mph /  6 km/h 3.7 mph /  6 km/h 51 % 0.0 in /  0 mm
20:33 5.1 °F /  -14.9 °C -4.2 °F /  -20.1 °C 1007.0 in /  34097 hPa WSW 5.6 mph /  9 km/h 5.6 mph /  9 km/h 51 % 0.0 in /  0 mm
20:38 4.9 °F /  -15.1 °C -4.7 °F /  -20.4 °C 1007.0 in /  34097 hPa SW 1.9 mph /  3.1 km/h   50 % 0.0 in /  0 mm
20:43 4.6 °F /  -15.2 °C -4.7 °F /  -20.4 °C 1007.0 in /  34097 hPa SW 5.6 mph /  9 km/h 5.6 mph /  9 km/h 51 % 0.0 in /  0 mm
20:48 4.3 °F /  -15.4 °C -5.2 °F /  -20.7 °C 1007.0 in /  34097 hPa SW 5.6 mph /  9 km/h 5.6 mph /  9 km/h 50 % 0.0 in /  0 mm
20:53 4.2 °F /  -15.4 °C -5.3 °F /  -20.7 °C 1007.0 in /  34097 hPa SW 6.1 mph /  9.8 km/h 6.1 mph /  9.8 km/h 50 % 0.0 in /  0 mm
20:58 4.2 °F /  -15.4 °C -5.3 °F /  -20.7 °C 1007.0 in /  34097 hPa West 2.6 mph /  4.2 km/h 3.2 mph /  5.1 km/h 50 % 0.0 in /  0 mm
21:03 4.0 °F /  -15.6 °C -5.5 °F /  -20.8 °C 1008.0 in /  34130.9 hPa West 2.6 mph /  4.2 km/h 3.2 mph /  5.1 km/h 50 % 0.0 in /  0 mm
21:08 3.7 °F /  -15.7 °C -5.8 °F /  -21 °C 1008.0 in /  34130.9 hPa SW 2.6 mph /  4.2 km/h 3.2 mph /  5.1 km/h 50 % 0.0 in /  0 mm
21:13 3.6 °F /  -15.8 °C -5.9 °F /  -21.1 °C 1008.0 in /  34130.9 hPa WSW 4.7 mph /  7.6 km/h 4.7 mph /  7.6 km/h 50 % 0.0 in /  0 mm
21:18 3.6 °F /  -15.8 °C -5.9 °F /  -21.1 °C 1008.0 in /  34130.9 hPa WSW 5.6 mph /  9 km/h 5.6 mph /  9 km/h 50 % 0.0 in /  0 mm
21:23 3.5 °F /  -15.8 °C -5.9 °F /  -21.1 °C 1008.0 in /  34130.9 hPa WSW 5.8 mph /  9.3 km/h 5.8 mph /  9.3 km/h 50 % 0.0 in /  0 mm
21:28 3.7 °F /  -15.7 °C -5.8 °F /  -21 °C 1008.0 in /  34130.9 hPa West 3.7 mph /  6 km/h 5.8 mph /  9.3 km/h 50 % 0.0 in /  0 mm
21:33 4.0 °F /  -15.6 °C -5.8 °F /  -21 °C 1008.0 in /  34130.9 hPa West 3.7 mph /  6 km/h 5.8 mph /  9.3 km/h 49 % 0.0 in /  0 mm
21:38 4.1 °F /  -15.5 °C -5.7 °F /  -20.9 °C 1008.0 in /  34130.9 hPa West 7.6 mph /  12.2 km/h 7.6 mph /  12.2 km/h 49 % 0.0 in /  0 mm
21:43 4.1 °F /  -15.5 °C -5.9 °F /  -21.1 °C 1008.0 in /  34130.9 hPa NNW 3.7 mph /  6 km/h 3.7 mph /  6 km/h 48 % 0.0 in /  0 mm
21:48 4.1 °F /  -15.5 °C -6.2 °F /  -21.2 °C 1008.0 in /  34130.9 hPa West 3.7 mph /  6 km/h 3.7 mph /  6 km/h 47 % 0.0 in /  0 mm
21:53 4.1 °F /  -15.5 °C -6.2 °F /  -21.2 °C 1008.0 in /  34130.9 hPa SW 5.6 mph /  9 km/h 5.6 mph /  9 km/h 47 % 0.0 in /  0 mm
21:58 4.1 °F /  -15.5 °C -6.2 °F /  -21.2 °C 1008.0 in /  34130.9 hPa WNW 7.4 mph /  11.9 km/h 7.4 mph /  11.9 km/h 47 % 0.0 in /  0 mm
22:03 4.0 °F /  -15.6 °C -6.6 °F /  -21.4 °C 1008.0 in /  34130.9 hPa West 3.7 mph /  6 km/h 3.7 mph /  6 km/h 46 % 0.0 in /  0 mm
22:08 4.0 °F /  -15.6 °C -6.6 °F /  -21.4 °C 1008.0 in /  34130.9 hPa SW 5.8 mph /  9.3 km/h 5.8 mph /  9.3 km/h 46 % 0.0 in /  0 mm
22:13 4.0 °F /  -15.6 °C -6.6 °F /  -21.4 °C 1008.0 in /  34130.9 hPa West 1.9 mph /  3.1 km/h 1.9 mph /  3.1 km/h 46 % 0.0 in /  0 mm
22:18 4.0 °F /  -15.6 °C -6.6 °F /  -21.4 °C 1008.0 in /  34130.9 hPa ENE 2.3 mph /  3.7 km/h 2.3 mph /  3.7 km/h 46 % 0.0 in /  0 mm
22:23 4.0 °F /  -15.6 °C -6.6 °F /  -21.4 °C 1008.0 in /  34130.9 hPa WSW 6.1 mph /  9.8 km/h 6.1 mph /  9.8 km/h 46 % 0.0 in /  0 mm
22:28 3.9 °F /  -15.6 °C -6.7 °F /  -21.5 °C 1008.0 in /  34130.9 hPa WSW 3.7 mph /  6 km/h 3.7 mph /  6 km/h 46 % 0.0 in /  0 mm
22:33 3.7 °F /  -15.7 °C -6.9 °F /  -21.6 °C 1008.0 in /  34130.9 hPa West 9.3 mph /  15 km/h 9.3 mph /  15 km/h 46 % 0.0 in /  0 mm
22:38 3.8 °F /  -15.7 °C -6.8 °F /  -21.6 °C 1008.0 in /  34130.9 hPa SSW 7.4 mph /  11.9 km/h 7.4 mph /  11.9 km/h 46 % 0.0 in /  0 mm
22:43 3.8 °F /  -15.7 °C -6.8 °F /  -21.6 °C 1008.0 in /  34130.9 hPa SSE 7.4 mph /  11.9 km/h 7.4 mph /  11.9 km/h 46 % 0.0 in /  0 mm
22:48 3.9 °F /  -15.6 °C -6.7 °F /  -21.5 °C 1008.0 in /  34130.9 hPa WSW 7.4 mph /  11.9 km/h 7.4 mph /  11.9 km/h 46 % 0.0 in /  0 mm
22:53 4.0 °F /  -15.6 °C -6.9 °F /  -21.6 °C 1008.0 in /  34130.9 hPa West 3.7 mph /  6 km/h 3.7 mph /  6 km/h 45 % 0.0 in /  0 mm
22:58 4.1 °F /  -15.5 °C -6.8 °F /  -21.6 °C 1008.0 in /  34130.9 hPa NNW 7.6 mph /  12.2 km/h 7.6 mph /  12.2 km/h 45 % 0.0 in /  0 mm
23:03 4.1 °F /  -15.5 °C -6.8 °F /  -21.6 °C 1008.0 in /  34130.9 hPa WSW 4.2 mph /  6.8 km/h 4.2 mph /  6.8 km/h 45 % 0.0 in /  0 mm
23:08 4.1 °F /  -15.5 °C -6.8 °F /  -21.6 °C 1008.0 in /  34130.9 hPa WSW 7.4 mph /  11.9 km/h 7.4 mph /  11.9 km/h 45 % 0.0 in /  0 mm
23:13 4.0 °F /  -15.6 °C -6.9 °F /  -21.6 °C 1008.0 in /  34130.9 hPa West 7.4 mph /  11.9 km/h 7.4 mph /  11.9 km/h 45 % 0.0 in /  0 mm
23:18 3.8 °F /  -15.7 °C -7.3 °F /  -21.8 °C 1008.0 in /  34130.9 hPa NNW 3.7 mph /  6 km/h 3.7 mph /  6 km/h 44 % 0.0 in /  0 mm
23:23 3.8 °F /  -15.7 °C -7.3 °F /  -21.8 °C 1008.0 in /  34130.9 hPa West 5.6 mph /  9 km/h 5.6 mph /  9 km/h 44 % 0.0 in /  0 mm
23:28 3.8 °F /  -15.7 °C -7.3 °F /  -21.8 °C 1008.0 in /  34130.9 hPa SW 3.7 mph /  6 km/h 3.7 mph /  6 km/h 44 % 0.0 in /  0 mm
23:33 3.7 °F /  -15.7 °C -7.4 °F /  -21.9 °C 1008.0 in /  34130.9 hPa WNW 2.6 mph /  4.2 km/h 3.2 mph /  5.1 km/h 44 % 0.0 in /  0 mm
23:38 3.8 °F /  -15.7 °C -7.3 °F /  -21.8 °C 1008.0 in /  34130.9 hPa WNW 5.0 mph /  8 km/h 5.0 mph /  8 km/h 44 % 0.0 in /  0 mm
23:43 3.7 °F /  -15.7 °C -7.4 °F /  -21.9 °C 1008.0 in /  34130.9 hPa WSW 3.7 mph /  6 km/h 3.7 mph /  6 km/h 44 % 0.0 in /  0 mm
23:48 3.7 °F /  -15.7 °C -7.4 °F /  -21.9 °C 1008.0 in /  34130.9 hPa WSW 3.7 mph /  6 km/h 3.7 mph /  6 km/h 44 % 0.0 in /  0 mm
23:53 3.7 °F /  -15.7 °C -7.4 °F /  -21.9 °C 1008.0 in /  34130.9 hPa WSW 5.6 mph /  9 km/h 5.6 mph /  9 km/h 44 % 0.0 in /  0 mm
23:58 3.7 °F /  -15.7 °C -7.7 °F /  -22.1 °C 1008.0 in /  34130.9 hPa WSW 3.7 mph /  6 km/h   43 % 0.0 in /  0 mm
Meteo Sesrovires
Elogis d' Weather Underground - 3.5 mb

Guio original per  Jim McMurry - jmcmurry@mwt.net Adaptat per a la plantilla per  Wim van der Kuil - Leuven-Template.eu

Trobareu la nostra informacio del temps tambe a:

Weather Underground

AWEKAS